This is the latest recevied weather packets stored in our database for station/object dl1wer-13. If no packets are shown the sender has not sent any weather packets the latest 1 day(s).
| Time | Temp. | Humidity | Pressure | Rain* | Wind** | Luminosity | Snow |
|---|---|---|---|---|---|---|---|
| 1777990822 | 17.22° C | 71% | 1033.8 hPa | 0 mm | 0.89 m/s, 151° | - | - |
| 1777990221 | 17.22° C | 70% | 1033.7 hPa | 0 mm | 0.89 m/s, 220° | - | - |
| 1777989623 | 17.22° C | 68% | 1033.7 hPa | 0 mm | 1.34 m/s, 292° | - | - |
| 1777989022 | 17.22° C | 70% | 1033.7 hPa | 0 mm | 1.34 m/s, 163° | - | - |
| 1777988422 | 17.22° C | 74% | 1033.9 hPa | 0 mm | 0.89 m/s, 212° | - | - |
| 1777987832 | 16.11° C | 75% | 1033.7 hPa | 0 mm | 1.34 m/s, 308° | - | - |
| 1777987222 | 15.56° C | 79% | 1034 hPa | 0.25 mm | 1.34 m/s, 140° | - | - |
| 1777986622 | 15.56° C | 81% | 1034.1 hPa | 0.25 mm | 1.34 m/s, 138° | - | - |
| 1777986022 | 15.56° C | 82% | 1034.3 hPa | 0.25 mm | 1.34 m/s, 294° | - | - |
| 1777985422 | 15.56° C | 84% | 1034.4 hPa | 0.25 mm | 1.34 m/s, 299° | - | - |
| 1777984822 | 15.56° C | 83% | 1034.3 hPa | 0.25 mm | 1.34 m/s, 151° | - | - |
| 1777984224 | 15.56° C | 80% | 1034.8 hPa | 0.25 mm | 1.34 m/s, 216° | - | - |
| 1777983621 | 16.11° C | 76% | 1034.6 hPa | 0 mm | 1.34 m/s, 260° | - | - |
| 1777983022 | 17.22° C | 71% | 1034.5 hPa | 0 mm | 1.34 m/s, 165° | - | - |
| 1777982422 | 18.33° C | 63% | 1034.6 hPa | 0 mm | 1.34 m/s, 289° | - | - |
| 1777981821 | 18.89° C | 60% | 1034.5 hPa | 0 mm | 1.34 m/s, 299° | - | - |
| 1777981221 | 20° C | 53% | 1034.2 hPa | 0 mm | 0.89 m/s, 257° | - | - |
| 1777980622 | 20° C | 50% | 1034.1 hPa | 0 mm | 1.34 m/s, 309° | - | - |
| 1777980022 | 20.56° C | 51% | 1034.2 hPa | 0 mm | 1.34 m/s, 320° | - | - |
| 1777979422 | 20° C | 52% | 1034.1 hPa | 0 mm | 0.45 m/s, 264° | - | - |
| 1777978822 | 20° C | 53% | 1033.9 hPa | 0 mm | 0.45 m/s, 198° | - | - |
| 1777978221 | 20° C | 53% | 1034.2 hPa | 0 mm | 1.34 m/s, 227° | - | - |
| 1777977621 | 20° C | 53% | 1034.1 hPa | 0 mm | 0.89 m/s, 257° | - | - |
| 1777977022 | 20° C | 51% | 1034.1 hPa | 0 mm | 1.34 m/s, 150° | - | - |
| 1777976422 | 19.44° C | 51% | 1034.1 hPa | 0 mm | 0.89 m/s, 255° | - | - |
* Rain latest hour (hover to see other rain measurements)
** Current wind speed in m/s (hover to see current wind gust speed)